Dati Storici

Data ora Umidita' aria (%) Temperatura aria (°C) Rad globale (W/m²) Gonioanemometro (°) Tacoanemometro (m/s) Pioggia (mm)
23-06-2020 09:30 38.3 % 28.074 6.907 1.62 0 0
23-06-2020 09:20 42.8 % 28.063 72.901 0.775 0 0
23-06-2020 09:10 41.7 % 28.692 147.027 0.939 0 0
23-06-2020 09:00 42.6 % 28.707 53.796 0.332 0 0
23-06-2020 08:50 45.8 % 27.997 41.961 -0.044 0 0
23-06-2020 08:40 41.2 % 28.451 47.857 0.34 0 0
23-06-2020 08:30 42.2 % 28.593 118.549 1.085 0 0
23-06-2020 08:20 41.6 % 28.496 48.856 -0.049 0 0
23-06-2020 08:10 43.3 % 28.071 71.874 -0.043 0 0
23-06-2020 08:00 44.6 % 27.04 76.641 -0.034 0 0
23-06-2020 07:50 47.6 % 26.549 67.481 -0.039 0 0
23-06-2020 07:40 46.9 % 25.766 12.51 1.21 0 0
23-06-2020 07:30 49.5 % 25.912 344.963 -0.034 0 0
23-06-2020 07:20 52.2 % 24.653 14.155 0.118 0 0
23-06-2020 07:10 56.2 % 23.292 99.295 -0.021 0 0
23-06-2020 07:00 57.9 % 22.898 279.162 -0.02 0 0
23-06-2020 06:50 58.6 % 22.646 57.817 -0.021 0 0
23-06-2020 06:40 58.6 % 22.636 293.979 0.726 0 0
23-06-2020 06:30 59.3 % 22.482 41.141 -0.019 0 0
23-06-2020 06:20 57.6 % 22.524 33.406 1.368 0 0

I dati sono presentati in modo automatico a scopo informativo. In seguito a verifica i dati possono subire modifiche o essere invalidati e non riportati negli archivi definitivi.